Time;durP1;ratioP1;P1;durP2;ratioP2;P2;SDS_P1;SDS_P2;PMS_P1;PMS_P2;Temp;Humidity;BMP_temperature;BMP_pressure;BME280_temperature;BME280_humidity;BME280_pressure;Samples;Min_cycle;Max_cycle;Signal;HPM_P1;HPM_P2
2023/10/18 00:01:49;;;;;;;0.20;0.20;;;8.50;99.90;;;;;;5040831;28;20042;-83
2023/10/18 00:04:17;;;;;;;1.95;0.38;;;8.40;99.90;;;;;;5052290;28;20029;-84
2023/10/18 00:06:47;;;;;;;0.10;0.10;;;8.50;99.90;;;;;;5036117;28;20433;-83
2023/10/18 00:11:57;;;;;;;0.30;0.30;;;8.40;99.90;;;;;;5052901;28;20044;-84
2023/10/18 00:14:25;;;;;;;0.90;0.38;;;8.30;99.90;;;;;;5051901;28;20020;-84
2023/10/18 00:16:50;;;;;;;0.38;0.38;;;8.30;99.90;;;;;;5051463;28;20097;-83
2023/10/18 00:19:18;;;;;;;0.20;0.20;;;8.30;99.90;;;;;;5056733;28;20471;-83
2023/10/18 00:21:44;;;;;;;1.35;0.30;;;8.30;99.90;;;;;;5044661;28;20021;-84
2023/10/18 00:24:09;;;;;;;0.60;0.60;;;8.30;99.90;;;;;;5065573;28;20081;-85
2023/10/18 00:26:35;;;;;;;2.05;0.52;;;8.30;99.90;;;;;;5064384;28;20042;-85
2023/10/18 00:29:01;;;;;;;0.28;0.28;;;8.20;99.90;;;;;;5059963;28;20029;-83
2023/10/18 00:31:27;;;;;;;0.35;0.35;;;8.20;99.90;;;;;;5041017;28;20036;-84
2023/10/18 00:33:55;;;;;;;0.20;0.20;;;8.20;99.90;;;;;;5039026;28;20114;-84
2023/10/18 00:36:20;;;;;;;0.47;0.47;;;8.30;99.90;;;;;;5036921;28;20088;-83
2023/10/18 00:38:47;;;;;;;0.10;0.10;;;8.20;99.90;;;;;;5055031;28;20100;-84
2023/10/18 00:41:22;;;;;;;0.10;0.10;;;8.30;99.90;;;;;;5036297;28;20025;-83
2023/10/18 00:43:52;;;;;;;0.13;0.13;;;8.20;99.90;;;;;;5039678;28;20036;-84
2023/10/18 00:46:18;;;;;;;1.35;0.28;;;8.20;99.90;;;;;;5040410;28;20029;-83
2023/10/18 00:48:44;;;;;;;0.30;0.30;;;8.20;99.90;;;;;;5042956;28;20100;-83
2023/10/18 00:51:17;;;;;;;0.15;0.15;;;8.20;99.90;;;;;;5057132;28;20443;-83
2023/10/18 00:53:48;;;;;;;0.10;0.10;;;8.10;99.90;;;;;;5041035;28;20350;-84
2023/10/18 00:56:15;;;;;;;0.20;0.20;;;8.10;99.90;;;;;;5047848;28;20021;-84
2023/10/18 00:58:44;;;;;;;0.20;0.20;;;8.10;99.90;;;;;;5059381;28;20111;-84
2023/10/18 01:01:11;;;;;;;0.30;0.30;;;8.10;99.90;;;;;;5040422;28;20120;-83
2023/10/18 01:03:41;;;;;;;0.20;0.20;;;8.10;99.90;;;;;;5060621;28;20486;-83
2023/10/18 01:06:21;;;;;;;0.60;0.60;;;8.10;99.90;;;;;;5058449;28;20108;-84
2023/10/18 01:08:48;;;;;;;0.20;0.20;;;8.10;99.90;;;;;;5049191;28;20465;-83
2023/10/18 01:11:14;;;;;;;0.57;0.55;;;8.00;99.90;;;;;;5056521;28;20361;-84
2023/10/18 01:13:45;;;;;;;1.13;0.60;;;8.00;99.90;;;;;;5056332;28;20017;-84
2023/10/18 01:16:14;;;;;;;0.45;0.40;;;8.00;99.90;;;;;;5038514;28;20020;-84
2023/10/18 01:18:47;;;;;;;0.28;0.28;;;7.90;99.90;;;;;;5039238;28;20350;-85
2023/10/18 01:21:18;;;;;;;;;;;7.90;99.90;;;;;;5047575;28;20071;-84
2023/10/18 01:23:49;;;;;;;0.10;0.10;;;7.90;99.90;;;;;;5040891;28;19919;-83
2023/10/18 01:26:21;;;;;;;0.57;0.57;;;7.90;99.90;;;;;;5057894;28;20637;-84
2023/10/18 01:28:47;;;;;;;0.10;0.10;;;7.90;99.90;;;;;;5043686;28;20473;-83
2023/10/18 01:31:13;;;;;;;0.38;0.38;;;7.90;99.90;;;;;;5055318;28;20029;-83
2023/10/18 01:33:43;;;;;;;0.25;0.25;;;7.80;99.90;;;;;;5054308;28;20016;-84
2023/10/18 01:36:12;;;;;;;0.45;0.45;;;7.80;99.90;;;;;;5038829;28;20063;-84
2023/10/18 01:38:39;;;;;;;0.32;0.32;;;7.80;99.90;;;;;;5035900;28;20124;-83
2023/10/18 01:41:47;;;;;;;0.45;0.45;;;7.80;99.90;;;;;;5038092;28;20033;-85
2023/10/18 01:43:56;;;;;;;0.20;0.20;;;7.80;99.90;;;;;;5049346;28;20424;-83
2023/10/18 01:46:23;;;;;;;0.20;0.20;;;7.80;99.90;;;;;;5057069;28;20032;-82
2023/10/18 01:48:51;;;;;;;0.20;0.20;;;7.70;99.90;;;;;;5034899;28;20016;-85
2023/10/18 01:51:17;;;;;;;0.10;0.10;;;7.70;99.90;;;;;;5052211;28;20112;-83
2023/10/18 01:53:43;;;;;;;1.02;0.22;;;7.70;99.90;;;;;;5039222;28;20016;-83
2023/10/18 01:56:13;;;;;;;0.90;0.20;;;7.70;99.90;;;;;;5054694;28;20055;-85
2023/10/18 01:58:41;;;;;;;0.60;0.60;;;7.80;99.90;;;;;;5046994;28;20020;-83
2023/10/18 02:01:16;;;;;;;0.10;0.10;;;7.70;99.90;;;;;;5044676;28;20488;-83
2023/10/18 02:03:44;;;;;;;0.40;0.40;;;7.60;99.90;;;;;;5058452;28;20187;-81
2023/10/18 02:06:10;;;;;;;0.20;0.20;;;7.60;99.90;;;;;;5037411;28;20028;-83
2023/10/18 02:08:38;;;;;;;0.35;0.20;;;7.60;99.90;;;;;;5045049;28;20028;-83
2023/10/18 02:11:06;;;;;;;0.20;0.20;;;7.70;99.90;;;;;;5039080;28;20063;-84
2023/10/18 02:13:34;;;;;;;0.17;0.17;;;7.70;99.90;;;;;;5053918;28;20025;-83
2023/10/18 02:16:24;;;;;;;0.20;0.20;;;7.70;99.90;;;;;;5037779;28;20112;-81
2023/10/18 02:18:49;;;;;;;0.38;0.38;;;7.70;99.90;;;;;;5054580;28;20425;-83
2023/10/18 02:21:15;;;;;;;0.63;0.30;;;7.60;99.90;;;;;;5055964;28;20480;-83
2023/10/18 02:23:41;;;;;;;0.80;0.47;;;7.60;99.90;;;;;;5037815;28;20111;-83
2023/10/18 02:26:22;;;;;;;0.10;0.10;;;7.60;99.90;;;;;;5039375;28;20066;-83
2023/10/18 02:28:48;;;;;;;0.57;0.50;;;7.50;99.90;;;;;;5056155;28;20017;-83
2023/10/18 02:31:15;;;;;;;0.10;0.10;;;7.50;99.90;;;;;;5051402;28;20123;-83
2023/10/18 02:33:44;;;;;;;0.57;0.40;;;7.50;99.90;;;;;;5036733;28;20024;-84
2023/10/18 02:36:11;;;;;;;0.30;0.30;;;7.50;99.90;;;;;;5049660;28;20036;-84
2023/10/18 02:38:38;;;;;;;0.20;0.20;;;7.50;99.90;;;;;;5040510;28;20060;-83
2023/10/18 02:43:49;;;;;;;3.00;0.52;;;7.40;99.90;;;;;;5054201;28;20086;-83
2023/10/18 02:46:25;;;;;;;0.20;0.20;;;7.40;99.90;;;;;;5037165;28;20473;-83
2023/10/18 02:48:52;;;;;;;0.68;0.68;;;7.40;99.90;;;;;;5060033;28;20523;-83
2023/10/18 02:51:24;;;;;;;0.20;0.20;;;7.40;99.90;;;;;;5053271;28;20115;-83
2023/10/18 02:56:40;;;;;;;0.10;0.10;;;7.30;99.90;;;;;;5054566;28;20029;-87
2023/10/18 02:59:07;;;;;;;0.50;0.50;;;7.30;99.90;;;;;;5035790;28;20111;-85
2023/10/18 03:01:44;;;;;;;0.00;0.00;;;7.30;99.90;;;;;;5035325;28;20048;-84
2023/10/18 03:04:14;;;;;;;0.47;0.47;;;7.30;99.90;;;;;;5038052;28;20044;-83
2023/10/18 03:06:45;;;;;;;0.30;0.30;;;7.20;99.90;;;;;;5053374;28;20479;-83
2023/10/18 03:11:56;;;;;;;0.40;0.40;;;7.30;99.90;;;;;;5055127;28;20071;-83
2023/10/18 03:17:32;;;;;;;0.20;0.20;;;7.30;99.90;;;;;;5054331;28;20036;-84
2023/10/18 03:19:58;;;;;;;0.20;0.20;;;7.30;99.90;;;;;;5037590;28;20028;-83
2023/10/18 03:22:31;;;;;;;0.20;0.20;;;7.30;99.90;;;;;;5037418;28;20017;-83
2023/10/18 03:25:00;;;;;;;0.10;0.10;;;7.30;99.90;;;;;;5034483;28;20733;-83
2023/10/18 03:27:33;;;;;;;0.10;0.10;;;7.30;99.90;;;;;;5043303;28;20112;-83
2023/10/18 03:30:08;;;;;;;0.30;0.30;;;7.30;99.90;;;;;;5042752;28;20028;-82
2023/10/18 03:32:34;;;;;;;0.30;0.30;;;7.40;99.90;;;;;;5053542;28;20416;-82
2023/10/18 03:35:00;;;;;;;0.47;0.38;;;7.30;99.90;;;;;;5037768;28;20025;-83
2023/10/18 03:37:25;;;;;;;1.17;1.17;;;7.30;99.90;;;;;;5051384;28;20021;-83
2023/10/18 03:39:55;;;;;;;0.80;0.22;;;7.30;99.90;;;;;;5056478;28;20498;-83
2023/10/18 03:42:30;;;;;;;0.10;0.10;;;7.30;99.90;;;;;;5052458;28;20025;-83
2023/10/18 03:45:00;;;;;;;3.33;0.20;;;7.30;99.90;;;;;;5051651;28;20120;-83
2023/10/18 03:47:28;;;;;;;0.13;0.13;;;7.30;99.90;;;;;;5054394;28;20551;-83
2023/10/18 03:49:55;;;;;;;1.50;0.45;;;7.30;99.90;;;;;;5033760;28;20083;-83
2023/10/18 03:52:21;;;;;;;0.20;0.20;;;7.30;99.90;;;;;;5036740;28;20020;-83
2023/10/18 03:57:28;;;;;;;0.30;0.30;;;7.20;99.90;;;;;;5054411;28;20059;-83
2023/10/18 03:59:58;;;;;;;0.40;0.40;;;7.20;99.90;;;;;;5053261;28;20025;-83
2023/10/18 04:02:29;;;;;;;0.20;0.20;;;7.20;99.90;;;;;;5032761;28;20025;-85
2023/10/18 04:04:58;;;;;;;0.50;0.50;;;7.20;99.90;;;;;;5054810;28;20811;-83
2023/10/18 04:07:24;;;;;;;0.25;0.25;;;7.20;99.90;;;;;;5037663;28;20436;-83
2023/10/18 04:12:27;;;;;;;0.20;0.20;;;7.10;99.90;;;;;;5068081;28;20028;-83
2023/10/18 04:14:56;;;;;;;0.20;0.20;;;7.10;99.90;;;;;;5081214;28;20008;-84
2023/10/18 04:20:08;;;;;;;0.40;0.40;;;7.10;99.90;;;;;;5063725;28;20065;-83
2023/10/18 04:22:36;;;;;;;0.77;0.77;;;7.10;99.90;;;;;;5044362;28;20094;-83
2023/10/18 04:25:08;;;;;;;0.20;0.20;;;7.10;99.90;;;;;;5055970;28;20033;-83
2023/10/18 04:27:36;;;;;;;0.20;0.20;;;7.20;99.90;;;;;;5052676;28;20036;-84
2023/10/18 04:30:11;;;;;;;0.55;0.55;;;7.10;99.90;;;;;;5036878;28;20119;-83
2023/10/18 04:32:36;;;;;;;0.68;0.68;;;7.10;99.90;;;;;;5054408;28;20032;-83
2023/10/18 04:35:10;;;;;;;0.55;0.52;;;7.10;99.90;;;;;;5052761;28;20029;-83
2023/10/18 04:37:36;;;;;;;0.20;0.20;;;7.10;99.90;;;;;;5038598;28;20024;-83
2023/10/18 04:40:04;;;;;;;1.13;0.38;;;7.10;99.90;;;;;;5037759;28;20060;-83
2023/10/18 04:42:29;;;;;;;0.10;0.10;;;7.10;99.90;;;;;;5037590;28;20021;-83
2023/10/18 04:44:57;;;;;;;0.20;0.20;;;7.10;99.90;;;;;;5045730;28;20408;-83
2023/10/18 04:47:31;;;;;;;0.30;0.30;;;7.00;99.90;;;;;;5036548;28;20024;-82
2023/10/18 04:50:04;;;;;;;0.10;0.10;;;7.00;99.90;;;;;;5032996;28;20032;-82
2023/10/18 04:52:40;;;;;;;;;;;7.10;99.90;;;;;;5052739;28;20104;-83
2023/10/18 04:55:12;;;;;;;0.30;0.30;;;7.10;99.90;;;;;;5053074;28;19912;-83
2023/10/18 04:57:41;;;;;;;0.32;0.32;;;7.00;99.90;;;;;;5051407;28;20039;-82
2023/10/18 05:01:13;;;;;;;1.95;0.43;;;7.00;99.90;;;;;;5053953;28;20032;-83
2023/10/18 05:03:07;;;;;;;1.00;0.35;;;7.00;99.90;;;;;;5032565;28;20036;-82
2023/10/18 05:05:44;;;;;;;0.20;0.20;;;7.00;99.90;;;;;;5054577;28;20025;-83
2023/10/18 05:08:13;;;;;;;0.10;0.10;;;6.90;99.90;;;;;;5055216;28;20017;-84
2023/10/18 05:10:39;;;;;;;0.52;0.40;;;6.90;99.90;;;;;;5035879;28;20025;-83
2023/10/18 05:13:32;;;;;;;0.20;0.20;;;6.90;99.90;;;;;;5038312;28;20510;-84
2023/10/18 05:16:02;;;;;;;1.20;0.85;;;6.90;99.90;;;;;;5047846;28;20033;-83
2023/10/18 05:18:30;;;;;;;0.30;0.30;;;6.90;99.90;;;;;;5047700;28;20307;-83
2023/10/18 05:20:57;;;;;;;0.22;0.22;;;6.80;99.90;;;;;;5042514;28;20028;-82
2023/10/18 05:23:25;;;;;;;0.75;0.38;;;6.80;99.90;;;;;;5034195;28;20033;-83
2023/10/18 05:28:49;;;;;;;0.73;0.73;;;6.80;99.90;;;;;;5054271;28;20097;-83
2023/10/18 05:36:35;;;;;;;4.75;0.63;;;6.80;99.90;;;;;;5054678;28;20032;-83
2023/10/18 05:41:49;;;;;;;0.65;0.65;;;6.80;99.90;;;;;;5053961;28;20040;-83
2023/10/18 05:44:15;;;;;;;0.30;0.20;;;6.80;99.90;;;;;;5042323;28;20037;-84
2023/10/18 05:46:41;;;;;;;0.10;0.10;;;6.70;99.90;;;;;;5041376;28;20053;-85
2023/10/18 05:49:13;;;;;;;2.78;0.40;;;6.80;99.90;;;;;;5058542;28;20400;-86
2023/10/18 05:51:51;;;;;;;0.10;0.10;;;6.70;99.90;;;;;;5062672;28;20013;-88
2023/10/18 05:54:24;;;;;;;0.20;0.20;;;6.70;99.90;;;;;;5037889;28;20024;-87
2023/10/18 05:56:51;;;;;;;0.20;0.20;;;6.70;99.90;;;;;;5036683;28;20032;-84
2023/10/18 06:01:47;;;;;;;0.25;0.25;;;6.70;99.90;;;;;;5057752;28;20024;-90
2023/10/18 06:04:23;;;;;;;0.17;0.17;;;6.70;99.90;;;;;;5043033;28;20040;-89
2023/10/18 06:06:58;;;;;;;0.20;0.20;;;6.70;99.90;;;;;;5043889;28;20020;-89
2023/10/18 06:09:27;;;;;;;0.10;0.10;;;6.70;99.90;;;;;;5056360;28;20025;-87
2023/10/18 06:11:55;;;;;;;0.10;0.10;;;6.70;99.90;;;;;;5043715;28;20032;-89
2023/10/18 06:14:25;;;;;;;0.38;0.38;;;6.70;99.90;;;;;;5042038;28;20032;-89
2023/10/18 06:17:06;;;;;;;0.10;0.10;;;6.70;99.90;;;;;;5039943;28;20500;-89
2023/10/18 06:19:58;;;;;;;0.45;0.45;;;6.70;99.90;;;;;;5046444;28;20045;-93
2023/10/18 06:22:53;;;;;;;;;;;;;;;;;;;;;
2023/10/18 06:25:29;;;;;;;0.43;0.43;;;6.70;99.90;;;;;;5059501;28;20043;-88
2023/10/18 06:28:47;;;;;;;0.20;0.20;;;6.70;99.90;;;;;;5040374;28;20468;-88
2023/10/18 06:32:04;;;;;;;4.57;0.25;;;6.70;99.90;;;;;;5056145;28;20024;-88
2023/10/18 06:34:32;;;;;;;0.38;0.38;;;6.70;99.90;;;;;;5037576;28;21222;-83
2023/10/18 06:37:01;;;;;;;1.20;0.50;;;6.70;99.90;;;;;;5037761;28;20033;-81
2023/10/18 06:39:35;;;;;;;0.25;0.25;;;6.70;99.90;;;;;;5035316;28;20016;-82
2023/10/18 06:42:06;;;;;;;0.20;0.20;;;6.80;99.90;;;;;;5037359;28;20027;-82
2023/10/18 06:44:36;;;;;;;1.75;0.22;;;6.80;99.90;;;;;;5052865;28;20028;-82
2023/10/18 06:47:06;;;;;;;0.28;0.28;;;6.90;99.90;;;;;;5053957;28;20024;-83
2023/10/18 06:49:32;;;;;;;0.20;0.20;;;6.80;99.90;;;;;;5054859;28;20013;-83
2023/10/18 06:52:00;;;;;;;0.20;0.20;;;6.90;99.90;;;;;;5034247;28;20346;-82
2023/10/18 06:54:32;;;;;;;0.20;0.20;;;6.90;99.90;;;;;;5055446;28;20046;-83
2023/10/18 06:57:15;;;;;;;0.20;0.20;;;6.90;99.90;;;;;;5051014;28;20593;-83
2023/10/18 06:59:47;;;;;;;;;;;6.90;99.90;;;;;;5053557;28;20043;-82
2023/10/18 07:02:14;;;;;;;0.75;0.32;;;7.00;99.90;;;;;;5035396;28;19916;-82
2023/10/18 07:04:50;;;;;;;0.50;0.50;;;7.10;99.90;;;;;;5055018;28;20072;-83
2023/10/18 07:07:23;;;;;;;0.20;0.20;;;7.10;99.90;;;;;;5034437;28;20079;-82
2023/10/18 07:09:56;;;;;;;0.22;0.20;;;7.20;99.90;;;;;;5038403;28;20148;-81
2023/10/18 07:12:28;;;;;;;0.20;0.20;;;7.20;99.90;;;;;;5052463;28;20035;-81
2023/10/18 07:14:57;;;;;;;0.20;0.20;;;7.30;99.90;;;;;;5037346;28;20428;-82
2023/10/18 07:17:25;;;;;;;1.00;0.80;;;7.30;99.90;;;;;;5034207;28;20496;-83
2023/10/18 07:19:57;;;;;;;0.95;0.95;;;7.40;99.90;;;;;;5042203;28;20044;-82
2023/10/18 07:25:22;;;;;;;0.30;0.30;;;7.50;99.90;;;;;;5037620;28;20520;-84
2023/10/18 07:27:48;;;;;;;0.30;0.30;;;7.60;99.90;;;;;;5047688;28;20104;-81
2023/10/18 07:30:16;;;;;;;0.20;0.20;;;7.70;99.90;;;;;;5052719;28;20029;-82
2023/10/18 07:32:47;;;;;;;0.38;0.38;;;7.80;99.90;;;;;;5051352;28;20481;-81
2023/10/18 07:35:26;;;;;;;0.40;0.40;;;7.80;99.90;;;;;;5044259;28;20091;-81
2023/10/18 07:37:54;;;;;;;0.20;0.20;;;7.80;99.90;;;;;;5050901;28;20070;-81
2023/10/18 07:40:21;;;;;;;0.50;0.50;;;7.90;99.90;;;;;;5046902;28;20770;-81
2023/10/18 07:42:52;;;;;;;0.63;0.63;;;8.00;99.90;;;;;;5051168;28;20033;-81
2023/10/18 07:45:21;;;;;;;0.38;0.38;;;8.10;99.90;;;;;;5032054;28;20025;-81
2023/10/18 07:47:54;;;;;;;0.52;0.28;;;8.20;99.90;;;;;;5036152;28;20017;-81
2023/10/18 07:50:41;;;;;;;0.65;0.65;;;8.30;99.90;;;;;;5040695;28;20492;-82
2023/10/18 07:53:11;;;;;;;0.47;0.47;;;8.30;99.90;;;;;;5032207;28;20029;-81
2023/10/18 07:55:36;;;;;;;0.20;0.20;;;8.40;99.90;;;;;;5038056;28;20016;-81
2023/10/18 07:58:17;;;;;;;0.60;0.60;;;8.50;99.90;;;;;;5051836;28;20025;-81
2023/10/18 08:03:27;;;;;;;0.50;0.50;;;8.70;99.90;;;;;;5078728;28;20005;-82
2023/10/18 08:05:55;;;;;;;0.73;0.50;;;8.90;99.90;;;;;;5074222;28;20013;-81
2023/10/18 08:08:24;;;;;;;0.30;0.30;;;8.90;99.90;;;;;;5062273;28;20041;-82
2023/10/18 08:10:54;;;;;;;0.25;0.25;;;9.00;99.90;;;;;;5039567;28;20017;-81
2023/10/18 08:13:27;;;;;;;0.20;0.20;;;9.10;99.90;;;;;;5050437;28;20028;-82
2023/10/18 08:15:56;;;;;;;0.10;0.10;;;9.20;99.90;;;;;;5045948;28;20021;-82
2023/10/18 08:21:07;;;;;;;0.20;0.20;;;9.20;99.90;;;;;;5049821;28;20270;-83
2023/10/18 08:26:03;;;;;;;0.30;0.30;;;9.40;99.90;;;;;;5048315;28;20013;-82
2023/10/18 08:28:38;;;;;;;0.60;0.60;;;9.50;99.90;;;;;;5029888;28;20024;-83
2023/10/18 08:31:26;;;;;;;0.40;0.40;;;9.60;99.90;;;;;;5030705;28;20017;-83
2023/10/18 08:33:54;;;;;;;0.20;0.20;;;9.70;99.90;;;;;;5037415;28;20016;-82
2023/10/18 08:36:29;;;;;;;0.30;0.30;;;9.80;99.90;;;;;;5047588;28;20013;-82
2023/10/18 08:38:56;;;;;;;0.20;0.20;;;9.80;99.90;;;;;;5053137;28;20031;-88
2023/10/18 08:41:26;;;;;;;1.42;1.33;;;9.90;99.90;;;;;;5035114;28;20032;-87
2023/10/18 08:44:21;;;;;;;0.65;0.65;;;10.10;99.90;;;;;;5049632;28;20032;-88
2023/10/18 08:49:34;;;;;;;0.43;0.43;;;10.20;99.90;;;;;;5052053;28;20023;-87
2023/10/18 08:52:06;;;;;;;0.70;0.70;;;10.30;99.90;;;;;;5034221;28;20120;-96
2023/10/18 08:54:39;;;;;;;0.63;0.63;;;10.40;99.90;;;;;;5037927;28;20170;-87
2023/10/18 08:57:08;;;;;;;0.20;0.20;;;10.50;99.90;;;;;;5031112;28;20032;-83
2023/10/18 08:59:42;;;;;;;0.30;0.30;;;10.70;99.90;;;;;;5053710;28;20032;-94
2023/10/18 09:02:22;;;;;;;0.25;0.25;;;10.90;99.90;;;;;;5056080;28;20052;-91
2023/10/18 09:04:59;;;;;;;0.22;0.22;;;11.10;99.90;;;;;;5034673;28;20033;-90
2023/10/18 09:07:45;;;;;;;0.40;0.40;;;11.30;99.90;;;;;;5043892;28;20056;-96
2023/10/18 09:18:34;;;;;;;0.30;0.30;;;11.70;99.90;;;;;;5105706;22;20055;-94
2023/10/18 09:23:40;;;;;;;0.20;0.20;;;11.90;99.90;;;;;;5049351;28;20105;-80
2023/10/18 09:26:10;;;;;;;0.30;0.30;;;12.00;99.90;;;;;;5033560;28;20029;-84
2023/10/18 09:28:44;;;;;;;0.25;0.25;;;12.10;99.90;;;;;;5037040;28;20029;-91
2023/10/18 09:31:18;;;;;;;0.32;0.32;;;12.20;99.90;;;;;;5051834;28;20515;-90
2023/10/18 09:33:56;;;;;;;0.20;0.20;;;12.30;99.90;;;;;;5043734;28;20028;-88
2023/10/18 09:36:25;;;;;;;0.30;0.30;;;12.50;99.90;;;;;;5052001;28;20727;-84
2023/10/18 09:38:53;;;;;;;0.30;0.30;;;12.80;99.90;;;;;;5041851;28;20168;-88
2023/10/18 09:41:31;;;;;;;0.40;0.40;;;12.90;99.90;;;;;;5043149;28;20110;-86
2023/10/18 09:44:03;;;;;;;0.20;0.20;;;13.10;99.90;;;;;;5046032;28;20136;-83
2023/10/18 09:46:32;;;;;;;0.40;0.40;;;13.30;99.90;;;;;;5037577;28;20037;-83
2023/10/18 09:48:59;;;;;;;0.32;0.32;;;13.80;99.90;;;;;;5035652;28;20460;-84
2023/10/18 09:51:26;;;;;;;0.70;0.70;;;14.00;99.90;;;;;;5039111;28;20468;-84
2023/10/18 09:53:56;;;;;;;0.40;0.40;;;14.10;99.90;;;;;;5051077;28;20669;-81
2023/10/18 09:56:37;;;;;;;0.38;0.32;;;14.00;99.90;;;;;;5044396;28;20039;-87
2023/10/18 09:59:11;;;;;;;0.40;0.40;;;14.00;99.90;;;;;;5056980;28;20025;-87
2023/10/18 10:04:17;;;;;;;0.88;0.88;;;14.10;99.90;;;;;;5054314;28;20025;-82
2023/10/18 10:06:46;;;;;;;0.30;0.30;;;14.10;99.90;;;;;;5038751;28;20536;-82
2023/10/18 10:09:14;;;;;;;0.50;0.50;;;13.90;99.90;;;;;;5053958;28;20028;-82
2023/10/18 10:11:44;;;;;;;0.60;0.60;;;13.60;99.90;;;;;;5037704;28;20034;-81
2023/10/18 10:14:11;;;;;;;0.90;0.45;;;13.50;99.90;;;;;;5053570;28;20025;-82
2023/10/18 10:16:39;;;;;;;0.43;0.43;;;13.50;99.90;;;;;;5054930;28;20045;-81
2023/10/18 10:19:11;;;;;;;0.50;0.50;;;13.60;99.90;;;;;;5054732;28;20044;-82
2023/10/18 10:21:37;;;;;;;0.50;0.50;;;13.70;99.90;;;;;;5056018;28;20044;-82
2023/10/18 10:24:29;;;;;;;0.77;0.77;;;13.70;99.90;;;;;;5039740;28;20028;-82
2023/10/18 10:27:13;;;;;;;0.98;0.85;;;13.60;99.90;;;;;;5056827;28;20181;-82
2023/10/18 10:29:39;;;;;;;0.20;0.20;;;13.60;99.90;;;;;;5034954;28;20052;-83
2023/10/18 10:32:05;;;;;;;1.65;1.50;;;13.60;99.90;;;;;;5054829;28;20519;-82
2023/10/18 10:34:36;;;;;;;0.38;0.38;;;13.60;99.90;;;;;;5054938;28;20149;-83
2023/10/18 10:37:18;;;;;;;0.30;0.30;;;13.60;99.90;;;;;;5053428;28;20021;-83
2023/10/18 10:39:49;;;;;;;1.35;0.77;;;13.70;99.90;;;;;;5055836;28;20644;-82
2023/10/18 10:42:41;;;;;;;0.30;0.30;;;13.80;99.90;;;;;;5035940;28;20024;-83
2023/10/18 10:47:46;;;;;;;0.30;0.30;;;14.10;99.90;;;;;;5052768;28;20472;-82
2023/10/18 10:50:42;;;;;;;0.38;0.38;;;14.20;99.90;;;;;;5037927;28;20503;-83
2023/10/18 10:53:10;;;;;;;0.50;0.50;;;14.10;99.90;;;;;;5065676;28;20020;-83
2023/10/18 10:55:43;;;;;;;0.30;0.30;;;14.10;99.90;;;;;;5060268;28;20047;-83
2023/10/18 10:58:16;;;;;;;0.43;0.43;;;14.00;99.90;;;;;;5042802;28;20029;-83
2023/10/18 11:01:02;;;;;;;1.33;1.25;;;14.20;99.90;;;;;;5035241;28;20401;-85
2023/10/18 11:03:54;;;;;;;0.20;0.20;;;14.40;99.90;;;;;;5034816;28;20567;-83
2023/10/18 11:06:22;;;;;;;3.65;0.50;;;14.60;99.90;;;;;;5033604;28;20025;-82
2023/10/18 11:08:49;;;;;;;0.60;0.60;;;14.70;99.90;;;;;;5033193;28;20497;-82
2023/10/18 11:11:15;;;;;;;0.70;0.70;;;14.80;99.90;;;;;;5034429;28;20500;-82
2023/10/18 11:13:41;;;;;;;1.58;0.50;;;14.90;99.90;;;;;;5054064;28;20135;-82
2023/10/18 11:16:07;;;;;;;0.40;0.40;;;15.00;99.90;;;;;;5036886;28;20032;-81
2023/10/18 11:18:39;;;;;;;0.52;0.52;;;15.20;99.90;;;;;;5033220;28;20027;-84
2023/10/18 11:21:06;;;;;;;0.47;0.47;;;15.40;99.90;;;;;;5053270;28;20029;-82
2023/10/18 11:23:33;;;;;;;0.43;0.43;;;15.60;99.90;;;;;;5048289;28;20025;-82
2023/10/18 11:25:59;;;;;;;0.70;0.50;;;15.80;99.90;;;;;;5052650;28;20017;-81
2023/10/18 11:28:29;;;;;;;0.82;0.60;;;15.90;99.90;;;;;;5053129;28;20417;-82
2023/10/18 11:31:00;;;;;;;0.77;0.70;;;16.10;99.90;;;;;;5035321;28;20021;-82
2023/10/18 11:33:37;;;;;;;0.50;0.50;;;16.20;99.90;;;;;;5053473;28;20016;-82
2023/10/18 11:36:08;;;;;;;0.73;0.70;;;16.20;99.40;;;;;;5032796;28;20025;-82
2023/10/18 11:38:34;;;;;;;0.57;0.57;;;16.10;99.70;;;;;;5043136;28;20488;-81
2023/10/18 11:41:09;;;;;;;0.52;0.52;;;16.10;99.90;;;;;;5050729;28;20044;-82
2023/10/18 11:43:40;;;;;;;0.70;0.50;;;16.20;99.60;;;;;;5053049;28;20048;-82
2023/10/18 11:46:07;;;;;;;0.40;0.40;;;16.20;99.80;;;;;;5065363;28;20023;-82
2023/10/18 11:48:34;;;;;;;0.40;0.40;;;16.30;99.80;;;;;;5059826;28;20021;-82
2023/10/18 11:51:02;;;;;;;0.30;0.30;;;16.30;99.90;;;;;;5077112;28;20013;-82
2023/10/18 11:53:28;;;;;;;0.65;0.65;;;16.40;99.80;;;;;;5050594;28;20048;-82
2023/10/18 11:55:57;;;;;;;0.30;0.30;;;16.50;99.60;;;;;;5056202;28;20082;-82
2023/10/18 11:58:26;;;;;;;0.40;0.40;;;16.60;99.20;;;;;;5053666;28;20039;-82
2023/10/18 12:01:00;;;;;;;0.60;0.60;;;16.60;99.00;;;;;;5051987;28;20024;-82
2023/10/18 12:03:29;;;;;;;0.40;0.40;;;16.80;99.20;;;;;;5050178;28;20445;-83
2023/10/18 12:05:59;;;;;;;0.43;0.43;;;17.10;98.80;;;;;;5051147;28;20111;-81
2023/10/18 12:08:25;;;;;;;0.43;0.43;;;17.30;99.40;;;;;;5037578;28;20041;-82
2023/10/18 12:10:54;;;;;;;0.80;0.80;;;17.40;98.00;;;;;;5052575;28;20049;-83
2023/10/18 12:13:20;;;;;;;0.35;0.35;;;17.50;97.20;;;;;;5035317;28;20067;-84
2023/10/18 12:15:47;;;;;;;0.60;0.60;;;17.60;96.80;;;;;;5052072;28;20025;-83
2023/10/18 12:18:15;;;;;;;1.23;0.55;;;17.70;96.60;;;;;;5050737;28;20021;-81
2023/10/18 12:20:44;;;;;;;0.57;0.57;;;17.80;96.00;;;;;;5053767;28;20032;-83
2023/10/18 12:23:18;;;;;;;0.60;0.60;;;17.90;95.70;;;;;;5041685;28;20039;-83
2023/10/18 12:25:47;;;;;;;0.40;0.40;;;17.90;95.20;;;;;;5035651;28;20036;-83
2023/10/18 12:28:14;;;;;;;0.35;0.35;;;17.90;95.70;;;;;;5052704;28;20012;-84
2023/10/18 12:30:44;;;;;;;0.50;0.50;;;18.00;95.30;;;;;;5036190;28;20476;-84
2023/10/18 12:34:15;;;;;;;0.45;0.45;;;18.00;94.90;;;;;;5040786;28;20036;-83
2023/10/18 12:36:07;;;;;;;0.63;0.63;;;17.90;94.80;;;;;;5045080;28;20595;-83
2023/10/18 12:38:34;;;;;;;0.55;0.55;;;17.90;94.70;;;;;;5057982;28;20083;-84
2023/10/18 12:41:01;;;;;;;0.50;0.50;;;17.90;94.50;;;;;;5055934;28;20089;-83
2023/10/18 12:43:31;;;;;;;0.60;0.60;;;18.00;94.40;;;;;;5055176;28;20516;-83
2023/10/18 12:46:03;;;;;;;0.40;0.40;;;18.10;94.30;;;;;;5057168;28;20056;-82
2023/10/18 12:48:29;;;;;;;0.50;0.50;;;18.20;94.30;;;;;;5056186;28;20153;-83
2023/10/18 12:50:59;;;;;;;0.40;0.40;;;18.30;94.40;;;;;;5053958;28;20036;-83
2023/10/18 12:58:47;;;;;;;0.40;0.40;;;17.80;93.40;;;;;;5056885;28;20371;-83
2023/10/18 13:01:15;;;;;;;0.68;0.68;;;17.90;94.00;;;;;;5039771;28;20520;-84
2023/10/18 13:03:56;;;;;;;0.52;0.52;;;18.10;94.50;;;;;;5058754;28;20028;-83
2023/10/18 13:06:35;;;;;;;0.40;0.40;;;18.00;92.40;;;;;;5041444;28;20017;-83
2023/10/18 13:09:19;;;;;;;0.40;0.40;;;17.80;93.20;;;;;;5057862;28;20060;-83
2023/10/18 13:14:23;;;;;;;0.60;0.60;;;18.00;93.90;;;;;;5054536;28;20458;-84
2023/10/18 13:16:50;;;;;;;0.45;0.45;;;18.00;93.50;;;;;;5057506;28;20032;-83
2023/10/18 13:19:15;;;;;;;0.50;0.50;;;17.90;93.10;;;;;;5052958;28;20111;-82
2023/10/18 13:21:44;;;;;;;0.45;0.45;;;18.10;93.60;;;;;;5055567;28;20112;-83
2023/10/18 13:26:49;;;;;;;0.40;0.40;;;18.20;93.30;;;;;;5054508;28;20048;-82
2023/10/18 13:31:52;;;;;;;0.45;0.45;;;18.20;93.50;;;;;;5055627;28;20115;-84
2023/10/18 13:34:18;;;;;;;0.50;0.50;;;18.20;93.40;;;;;;5054728;28;20392;-84
2023/10/18 13:36:49;;;;;;;0.40;0.40;;;18.10;93.60;;;;;;5054403;28;20043;-83
2023/10/18 13:39:19;;;;;;;0.55;0.55;;;18.20;93.60;;;;;;5041566;28;20082;-84
2023/10/18 13:41:49;;;;;;;0.60;0.60;;;18.10;93.40;;;;;;5053498;28;20400;-83
2023/10/18 13:44:19;;;;;;;0.40;0.40;;;18.20;93.10;;;;;;5037265;28;20029;-84
2023/10/18 13:47:00;;;;;;;1.23;1.15;;;18.10;93.00;;;;;;5038106;28;20052;-84
2023/10/18 13:49:26;;;;;;;0.30;0.30;;;18.10;93.60;;;;;;5044961;28;20035;-84
2023/10/18 13:51:55;;;;;;;0.50;0.50;;;18.20;93.30;;;;;;5036972;28;20029;-84
2023/10/18 13:54:21;;;;;;;0.40;0.40;;;18.20;93.30;;;;;;5058450;28;20098;-84
2023/10/18 13:56:50;;;;;;;0.45;0.45;;;18.20;93.50;;;;;;5040773;28;20700;-84
2023/10/18 13:59:17;;;;;;;1.20;1.10;;;18.10;93.20;;;;;;5052422;28;20025;-84
2023/10/18 14:01:43;;;;;;;0.40;0.40;;;18.10;93.40;;;;;;5035441;28;20326;-84
2023/10/18 14:04:13;;;;;;;0.63;0.45;;;18.00;93.60;;;;;;5050940;28;20079;-83
2023/10/18 14:06:41;;;;;;;0.47;0.47;;;18.10;93.70;;;;;;5034685;28;20579;-83
2023/10/18 14:09:10;;;;;;;0.57;0.57;;;18.30;93.20;;;;;;5050859;28;20096;-83
2023/10/18 14:11:39;;;;;;;0.40;0.40;;;18.30;92.80;;;;;;5052707;28;20594;-83
2023/10/18 14:14:04;;;;;;;0.52;0.52;;;18.40;93.50;;;;;;5054656;28;20056;-84
2023/10/18 14:16:30;;;;;;;0.40;0.40;;;18.40;93.30;;;;;;5055004;28;20048;-83
2023/10/18 14:18:57;;;;;;;0.55;0.55;;;18.50;92.70;;;;;;5051457;28;20055;-83
2023/10/18 14:21:24;;;;;;;0.63;0.63;;;18.60;92.30;;;;;;5051471;28;20052;-83
2023/10/18 14:23:54;;;;;;;0.52;0.52;;;18.80;92.20;;;;;;5034642;28;20048;-83
2023/10/18 14:26:24;;;;;;;0.40;0.40;;;18.70;92.10;;;;;;5054735;28;20055;-83
2023/10/18 14:28:55;;;;;;;0.70;0.70;;;18.60;91.80;;;;;;5036784;28;20016;-84
2023/10/18 14:31:21;;;;;;;0.43;0.43;;;18.50;92.00;;;;;;5042746;28;20051;-84
2023/10/18 14:33:49;;;;;;;0.40;0.40;;;18.40;92.00;;;;;;5049966;28;20115;-83